Main page
METAR-TAF:

METAR-TAF

Airports :

Oran, Algeria

Oran Es Sénia Airport

latitude: 35-38N, longitude: 000-36W, elevation: 90 m

Current weather observation

The report was made 26 minutes ago, at 07:00 UTC
Calm wind
Temperature 4°C
Humidity 93%
Pressure 1017 hPa
Visibility 10 km or more
Broken clouds at a height of 3300 ft

METAR: DAOO 220700Z 00000KT 9999 BKN033 04/03 Q1017

Time: 08:26 (07:26 UTC)

Forecast

The report was made 2 hours and 26 minutes ago, at 05:00 UTC
Forecast valid from 22 at 06 UTC to 23 at 06 UTC
Wind 2 kt from variable directions
Visibility: 8000 m
Few clouds at a height of 2600 ft
Scattered clouds at a height of 23300 ft
Becoming
from 22 at 09 UTC to 22 at 12 UTC
Wind 10 kt from the West/Northwest
Visibility 10 km or more
no clouds below 1500 m and no cumulonimbus
Becoming
from 22 at 20 UTC to 22 at 23 UTC
Wind 2 kt from variable directions

TAF: DAOO 220500Z 2206/2306 VRB02KT 8000 FEW026 SCT233 BECMG 2209/2212 30010KT CAVOK BECMG 2220/2223 VRB02KT

Weather observations and forecasts of more than 4000 airports (METAR and TAF reports).

The available stations are represented by yellow and red dots on the map.

Hover mouse over dot to see the name of the station.

Then click to see weather observations and forecasts.

To change the map : click on the green buttons with a black cross to zoom in, on the green button with a dash to zoom out, or on the green arrows for adjacent maps.


METAR-TAF: